Time;durP1;ratioP1;P1;durP2;ratioP2;P2;SDS_P1;SDS_P2;PMS_P1;PMS_P2;Temp;Humidity;BMP_temperature;BMP_pressure;BME280_temperature;BME280_humidity;BME280_pressure;Samples;Min_cycle;Max_cycle;Signal;HPM_P1;HPM_P2
2022/05/07 00:04:39;;;;;;;;;;;;;;;13.55;51.36523;102337.2;;;;-80
2022/05/07 00:09:44;;;;;;;;;;;;;;;13.52;52.35059;102332.2;;;;-79
2022/05/07 00:11:07;;;;;;;12.8;8.2;;;;;;;;;;;;;-77
2022/05/07 00:14:36;;;;;;;;;;;;;;;13.51;51.31641;102328.3;;;;-79
2022/05/07 00:19:43;;;;;;;;;;;;;;;13.49;51.3125;102326.6;;;;-79
2022/05/07 00:24:38;;;;;;;;;;;;;;;13.45;51.91504;102325.5;;;;-77
2022/05/07 00:29:39;;;;;;;;;;;;;;;13.43;51.74609;102321.8;;;;-79
2022/05/07 00:34:47;;;;;;;;;;;;;;;13.37;51.55859;102312.5;;;;-78
2022/05/07 00:39:35;;;;;;;;;;;;;;;13.33;51.13672;102310.5;;;;-78
2022/05/07 00:41:05;;;;;;;13.9;7.6;;;;;;;;;;;;;-79
2022/05/07 00:44:43;;;;;;;;;;;;;;;13.27;50.61426;102308.2;;;;-78
2022/05/07 00:49:35;;;;;;;;;;;;;;;13.25;51.57715;102303.8;;;;-80
2022/05/07 00:54:48;;;;;;;;;;;;;;;13.19;51.17773;102303;;;;-80
2022/05/07 00:59:35;;;;;;;;;;;;;;;13.14;50.86816;102303.3;;;;-79
2022/05/07 01:04:35;;;;;;;;;;;;;;;13.09;51.39063;102303.5;;;;-78
2022/05/07 01:09:36;;;;;;;;;;;;;;;13.04;50.73438;102303;;;;-78
2022/05/07 01:11:15;;;;;;;11.1;6.4;;;;;;;;;;;;;-78
2022/05/07 01:14:43;;;;;;;;;;;;;;;12.99;50.93066;102302.2;;;;-78
2022/05/07 01:19:36;;;;;;;;;;;;;;;12.93;51.13672;102297;;;;-77
2022/05/07 01:24:37;;;;;;;;;;;;;;;12.87;51.20801;102297.2;;;;-78
2022/05/07 01:29:50;;;;;;;;;;;;;;;12.82;52.00879;102292.8;;;;-78
2022/05/07 01:34:53;;;;;;;;;;;;;;;12.74;52.63965;102285;;;;-81
2022/05/07 01:39:38;;;;;;;;;;;;;;;12.72;52.22266;102281.5;;;;-79
2022/05/07 01:41:08;;;;;;;9.6;5.1;;;;;;;;;;;;;-79
2022/05/07 01:49:43;;;;;;;;;;;;;;;12.65;52.43652;102285.2;;;;-76
2022/05/07 01:54:38;;;;;;;;;;;;;;;12.66;52.65137;102279.1;;;;-79
2022/05/07 01:59:37;;;;;;;;;;;;;;;12.66;52.39355;102283.4;;;;-78
2022/05/07 02:04:44;;;;;;;;;;;;;;;12.67;52.24902;102289.6;;;;-77
2022/05/07 02:09:35;;;;;;;;;;;;;;;12.66;52.58398;102290.2;;;;-77
2022/05/07 02:11:07;;;;;;;6.6;3.9;;;;;;;;;;;;;-80
2022/05/07 02:14:37;;;;;;;;;;;;;;;12.64;52.44824;102291.5;;;;-78
2022/05/07 02:19:42;;;;;;;;;;;;;;;12.64;52.38086;102285.9;;;;-78
2022/05/07 02:24:46;;;;;;;;;;;;;;;12.64;52.62695;102284;;;;-79
2022/05/07 02:29:36;;;;;;;;;;;;;;;12.62;52.64648;102292.1;;;;-77
2022/05/07 02:34:35;;;;;;;;;;;;;;;12.61;52.81348;102284.3;;;;-79
2022/05/07 02:39:44;;;;;;;;;;;;;;;12.57;52.9668;102280.9;;;;-78
2022/05/07 02:45:06;;;;;;;;;;;;;;;12.55;52.76172;102284.1;;;;-85
2022/05/07 02:52:21;;;;;;;;;;;;;;;12.51;52.89063;102293.4;;;;-86
2022/05/07 02:57:25;;;;;;;;;;;;;;;12.47;52.81934;102290.5;;;;-84
2022/05/07 03:02:16;;;;;;;;;;;;;;;12.43;52.64648;102286.7;;;;-84
2022/05/07 03:07:27;;;;;;;;;;;;;;;12.38;52.61719;102288.2;;;;-84
2022/05/07 03:11:13;;;;;;;9.1;4.3;;;;;;;;;;;;;-81
2022/05/07 03:12:23;;;;;;;;;;;;;;;12.34;52.54688;102288.7;;;;-84
2022/05/07 03:17:23;;;;;;;;;;;;;;;12.31;52.54199;102295.7;;;;-82
2022/05/07 03:22:27;;;;;;;;;;;;;;;12.27;52.8291;102294.3;;;;-81
2022/05/07 03:27:22;;;;;;;;;;;;;;;12.26;52.76074;102299;;;;-84
2022/05/07 03:32:29;;;;;;;;;;;;;;;12.25;52.73633;102303.5;;;;-83
2022/05/07 03:37:25;;;;;;;;;;;;;;;12.24;52.76855;102297.6;;;;-84
2022/05/07 03:41:31;;;;;;;8.4;4.1;;;;;;;;;;;;;-82
2022/05/07 03:42:19;;;;;;;;;;;;;;;12.22;52.83496;102302.1;;;;-84
2022/05/07 03:47:20;;;;;;;;;;;;;;;12.24;52.91406;102298.3;;;;-83
2022/05/07 04:01:19;;;;;;;;;;;;;;;12.23;53.76465;102311.1;;;;-85
2022/05/07 04:06:23;;;;;;;;;;;;;;;12.23;53.83105;102314.8;;;;-83
2022/05/07 04:11:15;;;;;;;8;4.2;;;;;;;;;;;;;-85
2022/05/07 04:11:41;;;;;;;;;;;;;;;12.18;53.58984;102302.3;;;;-84
2022/05/07 04:16:27;;;;;;;;;;;;;;;12.25;53.4541;102321.1;;;;-86
2022/05/07 04:21:22;;;;;;;;;;;;;;;12.2;53.36914;102309.5;;;;-85
2022/05/07 04:26:22;;;;;;;;;;;;;;;12.25;53.43164;102324.8;;;;-85
2022/05/07 04:31:24;;;;;;;;;;;;;;;12.26;53.56738;102326.1;;;;-84
2022/05/07 04:36:29;;;;;;;;;;;;;;;12.27;53.69141;102330.9;;;;-82
2022/05/07 04:41:24;;;;;;;11.1;5.2;;;;;;;;;;;;;-84
2022/05/07 04:41:50;;;;;;;;;;;;;;;12.25;54.25879;102326.2;;;;-84
2022/05/07 04:46:21;;;;;;;;;;;;;;;12.29;54.15332;102333.8;;;;-83
2022/05/07 04:51:32;;;;;;;;;;;;;;;12.32;54.48047;102335.2;;;;-81
2022/05/07 04:56:32;;;;;;;;;;;;;;;12.32;54.31348;102338;;;;-84
2022/05/07 04:59:48;;;;;;;;;;;;;;;12.33;54.31348;102338.5;;;;-84
2022/05/07 05:04:58;;;;;;;;;;;;;;;12.33;54.14551;102338.8;;;;-82
2022/05/07 05:11:19;;;;;;;16.4;6.1;;;;;;;;;;;;;-85
2022/05/07 05:19:49;;;;;;;;;;;;;;;12.35;53.65527;102340.6;;;;-84
2022/05/07 05:24:56;;;;;;;;;;;;;;;12.4;53.4834;102342;;;;-83
2022/05/07 05:29:54;;;;;;;;;;;;;;;12.49;53.25879;102343;;;;-83
2022/05/07 05:34:49;;;;;;;;;;;;;;;12.62;52.97266;102347;;;;-85
2022/05/07 05:39:56;;;;;;;;;;;;;;;12.8;52.71387;102350.1;;;;-81
2022/05/07 05:41:33;;;;;;;16.3;6.9;;;;;;;;;;;;;-82
2022/05/07 05:45:17;;;;;;;;;;;;;;;13.05;52.55273;102345.8;;;;-83
2022/05/07 05:50:03;;;;;;;;;;;;;;;13.36;52.18555;102345.5;;;;-82
2022/05/07 05:54:55;;;;;;;;;;;;;;;13.63;51.81348;102354.4;;;;-83
2022/05/07 05:59:52;;;;;;;;;;;;;;;13.78;51.9668;102358.9;;;;-83
2022/05/07 06:04:54;;;;;;;;;;;;;;;13.9;52.06934;102363.7;;;;-84
2022/05/07 06:11:46;;;;;;;14.5;7.4;;;;;;;;;;;;;-86
2022/05/07 06:14:40;;;;;;;;;;;;;;;14.07;51.75195;102373.5;;;;-85
2022/05/07 06:19:34;;;;;;;;;;;;;;;14.17;51.93359;102382.3;;;;-85
2022/05/07 06:29:57;;;;;;;;;;;;;;;;;;;;;
2022/05/07 06:34:38;;;;;;;;;;;;;;;14.58;52.4541;102401.9;;;;-85
2022/05/07 06:41:35;;;;;;;18.5;9.7;;;;;;;;;;;;;-82
2022/05/07 06:48:35;;;;;;;;;;;;;;;14.96;52.56738;102410.8;;;;-84
2022/05/07 06:53:48;;;;;;;;;;;;;;;15.11;52.94629;102414.9;;;;-84
2022/05/07 06:59:40;;;;;;;;;;;;;;;15.32;52.67871;102416.8;;;;-87
2022/05/07 07:04:52;;;;;;;;;;;;;;;15.61;52.88281;102419.1;;;;-88
2022/05/07 07:09:46;;;;;;;;;;;;;;;16.02;52.26465;102417.8;;;;-85
2022/05/07 07:11:34;;;;;;;21.6;11.3;;;;;;;;;;;;;-88
2022/05/07 07:14:55;;;;;;;;;;;;;;;16.5;51.37207;102419;;;;-88
2022/05/07 07:20:04;;;;;;;;;;;;;;;16.83;50.74121;102419;;;;-85
2022/05/07 07:24:52;;;;;;;;;;;;;;;17.04;50.27832;102421.6;;;;-88
2022/05/07 07:29:58;;;;;;;;;;;;;;;17.19;50.13672;102422.2;;;;-87
2022/05/07 07:34:48;;;;;;;;;;;;;;;17.27;49.91992;102418.9;;;;-85
2022/05/07 07:39:49;;;;;;;;;;;;;;;17.35;49.95117;102418;;;;-86
2022/05/07 07:41:38;;;;;;;21.8;12.1;;;;;;;;;;;;;-86
2022/05/07 07:47:56;;;;;;;;;;;;;;;17.44;50.12012;102418.1;;;;-83
2022/05/07 07:49:50;;;;;;;;;;;;;;;17.61;50.06055;102424.5;;;;-83
2022/05/07 07:54:50;;;;;;;;;;;;;;;17.96;49.57617;102427.1;;;;-83
2022/05/07 08:03:36;;;;;;;;;;;;;;;18.11;48.82129;102392;;;;-83
2022/05/07 08:11:55;;;;;;;21.5;12.2;;;;;;;;;;;;;-83
2022/05/07 08:13:36;;;;;;;;;;;;;;;18.54;48.9375;102435.3;;;;-84
2022/05/07 08:18:40;;;;;;;;;;;;;;;18.64;48.95898;102439.4;;;;-84
2022/05/07 08:23:45;;;;;;;;;;;;;;;18.8;48.28223;102437.2;;;;-85
2022/05/07 08:28:39;;;;;;;;;;;;;;;19;48.00879;102444.7;;;;-84
2022/05/07 08:34:03;;;;;;;;;;;;;;;19.22;47.85059;102450.4;;;;-84
2022/05/07 08:50:26;;;;;;;;;;;;;;;20.59;46.4541;102458.3;;;;-84
2022/05/07 08:55:13;;;;;;;;;;;;;;;20.98;45.75098;102464.9;;;;-83
2022/05/07 09:05:02;;;;;;;;;;;;;;;21.66;44.75488;102464.2;;;;-84
2022/05/07 09:11:48;;;;;;;22.4;12.2;;;;;;;;;;;;;-83
2022/05/07 09:15:01;;;;;;;;;;;;;;;22.5;44.20605;102473;;;;-84
2022/05/07 09:19:55;;;;;;;;;;;;;;;23.03;43.71777;102475.6;;;;-82
2022/05/07 09:29:44;;;;;;;;;;;;;;;24.11;41.89551;102483.6;;;;-86
2022/05/07 09:40:26;;;;;;;;;;;;;;;25.01;40.78906;102482.6;;;;-84
2022/05/07 09:47:13;;;;;;;;;;;;;;;25.57;39.72754;102478.5;;;;-84
2022/05/07 09:57:38;;;;;;;;;;;;;;;25.79;39.42285;102471.4;;;;-84
2022/05/07 10:02:59;;;;;;;;;;;;;;;25.78;39.41016;102474.3;;;;-84
2022/05/07 10:07:59;;;;;;;;;;;;;;;25.84;39.39258;102478;;;;-84
2022/05/07 10:13:56;;;;;;;;;;;;;;;26.15;39.00195;102477.8;;;;-83
2022/05/07 10:19:05;;;;;;;;;;;;;;;26.43;39.02539;102485.4;;;;-85
2022/05/07 10:25:20;;;;;;;;;;;;;;;26.6;38.44824;102487.6;;;;-84
2022/05/07 10:30:22;;;;;;;;;;;;;;;26.78;38.52148;102484.3;;;;-83
2022/05/07 10:35:35;;;;;;;;;;;;;;;27.09;38.65234;102488.5;;;;-84
2022/05/07 10:40:32;;;;;;;;;;;;;;;27.34;38.19629;102489.9;;;;-84
2022/05/07 10:47:41;;;;;;;;;;;;;;;27.36;37.87207;102484.3;;;;-85
2022/05/07 11:05:52;;;;;;;;;;;;;;;28.16;37.35645;102480.3;;;;-83
2022/05/07 11:10:32;;;;;;;;;;;;;;;28.12;37.13184;102483.9;;;;-86
2022/05/07 11:11:56;;;;;;;10;5.5;;;;;;;;;;;;;-84
2022/05/07 11:15:31;;;;;;;;;;;;;;;28.13;36.72461;102470.6;;;;-84
2022/05/07 11:20:38;;;;;;;;;;;;;;;28.2;36.6709;102488.5;;;;-85
2022/05/07 11:25:31;;;;;;;;;;;;;;;28.01;36.58594;102491.9;;;;-82
2022/05/07 11:30:45;;;;;;;;;;;;;;;27.64;37.09277;102494.6;;;;-84
2022/05/07 11:35:30;;;;;;;;;;;;;;;27.28;37.78418;102492.5;;;;-85
2022/05/07 11:40:35;;;;;;;;;;;;;;;26.94;38.16309;102490.2;;;;-84
2022/05/07 11:41:57;;;;;;;9.5;5.6;;;;;;;;;;;;;-86
2022/05/07 11:45:31;;;;;;;;;;;;;;;26.69;38.49023;102492.1;;;;-76
2022/05/07 11:50:26;;;;;;;;;;;;;;;26.59;38.70313;102501.4;;;;-76
2022/05/07 11:55:26;;;;;;;;;;;;;;;24.95;39.03711;102499.2;;;;-78
2022/05/07 12:00:25;;;;;;;;;;;;;;;23.59;41.80176;102498.5;;;;-78
2022/05/07 12:05:24;;;;;;;;;;;;;;;23.48;42.27539;102500.6;;;;-79
2022/05/07 12:10:25;;;;;;;;;;;;;;;23.61;42.01074;102499.2;;;;-74
2022/05/07 12:11:56;;;;;;;14.5;7.9;;;;;;;;;;;;;-75
2022/05/07 12:17:52;;;;;;;;;;;;;;;23.94;41.17578;102499.6;;;;-80
2022/05/07 12:20:24;;;;;;;;;;;;;;;24.86;40.29004;102497;;;;-78
2022/05/07 12:30:24;;;;;;;;;;;;;;;26.19;37.73926;102500;;;;-78
2022/05/07 12:35:23;;;;;;;;;;;;;;;26.31;37.64453;102507.5;;;;-77
2022/05/07 12:40:24;;;;;;;;;;;;;;;26.38;37.88379;102511.4;;;;-77
2022/05/07 12:42:07;;;;;;;9.2;5.6;;;;;;;;;;;;;-77
2022/05/07 12:45:23;;;;;;;;;;;;;;;26.57;38.50391;102511.3;;;;-77
2022/05/07 12:50:24;;;;;;;;;;;;;;;26.77;37.70703;102510.7;;;;-76
2022/05/07 12:55:24;;;;;;;;;;;;;;;26.76;37.56641;102513.5;;;;-78
2022/05/07 13:00:25;;;;;;;;;;;;;;;26.77;37.50977;102506.8;;;;-78
2022/05/07 13:05:24;;;;;;;;;;;;;;;26.85;37.44629;102503.6;;;;-78
2022/05/07 13:10:23;;;;;;;;;;;;;;;26.91;37.65918;102502.5;;;;-78
2022/05/07 13:12:04;;;;;;;7.3;4.6;;;;;;;;;;;;;-77
2022/05/07 13:15:23;;;;;;;;;;;;;;;27.01;37.73926;102501;;;;-77
2022/05/07 13:20:24;;;;;;;;;;;;;;;27.22;37.47656;102508.6;;;;-77
2022/05/07 13:25:24;;;;;;;;;;;;;;;27.36;37.32617;102504.1;;;;-78
2022/05/07 13:30:24;;;;;;;;;;;;;;;27.66;37.83887;102503.6;;;;-77
2022/05/07 13:35:24;;;;;;;;;;;;;;;28.01;37.94922;102503.4;;;;-78
2022/05/07 13:40:24;;;;;;;;;;;;;;;28.25;36.54688;102504.2;;;;-78
2022/05/07 13:42:10;;;;;;;5.8;3.2;;;;;;;;;;;;;-77
2022/05/07 13:45:24;;;;;;;;;;;;;;;28.29;35.59375;102504;;;;-76
2022/05/07 13:50:24;;;;;;;;;;;;;;;28.09;36.11523;102509.4;;;;-78
2022/05/07 13:55:23;;;;;;;;;;;;;;;27.82;36.11621;102504.9;;;;-77
2022/05/07 14:00:28;;;;;;;;;;;;;;;27.69;36.54883;102501.9;;;;-80
2022/05/07 14:05:25;;;;;;;;;;;;;;;27.59;36.73926;102503.6;;;;-78
2022/05/07 14:10:23;;;;;;;;;;;;;;;27.48;36.31055;102500.3;;;;-76
2022/05/07 14:12:17;;;;;;;5.5;3.4;;;;;;;;;;;;;-78
2022/05/07 14:15:24;;;;;;;;;;;;;;;27.32;36.7168;102498.4;;;;-76
2022/05/07 14:20:25;;;;;;;;;;;;;;;27.19;36.73047;102501.1;;;;-77
2022/05/07 14:25:24;;;;;;;;;;;;;;;27.13;36.93359;102502;;;;-76
2022/05/07 14:30:23;;;;;;;;;;;;;;;27.21;36.75391;102498.4;;;;-76
2022/05/07 14:35:27;;;;;;;;;;;;;;;27.29;36.76074;102495.5;;;;-77
2022/05/07 14:40:33;;;;;;;;;;;;;;;27.38;36.79102;102500.3;;;;-78
2022/05/07 14:42:18;;;;;;;7.3;4.2;;;;;;;;;;;;;-77
2022/05/07 14:45:24;;;;;;;;;;;;;;;27.47;36.97363;102498.5;;;;-77
2022/05/07 14:50:24;;;;;;;;;;;;;;;27.59;36.5293;102504.2;;;;-78
2022/05/07 14:55:24;;;;;;;;;;;;;;;27.62;36.19336;102508.1;;;;-78
2022/05/07 15:00:27;;;;;;;;;;;;;;;27.49;36.20703;102505.3;;;;-77
2022/05/07 15:05:26;;;;;;;;;;;;;;;27.28;36.64355;102513.8;;;;-78
2022/05/07 15:12:22;;;;;;;5.7;2.9;;;;;;;;;;;;;-77
2022/05/07 15:15:24;;;;;;;;;;;;;;;26.83;36.67676;102518.7;;;;-78
2022/05/07 15:20:25;;;;;;;;;;;;;;;26.64;36.41797;102524.7;;;;-78
2022/05/07 15:25:23;;;;;;;;;;;;;;;26.37;36.76758;102521.6;;;;-76
2022/05/07 15:30:24;;;;;;;;;;;;;;;26.02;37.80762;102517.9;;;;-78
2022/05/07 15:40:27;;;;;;;;;;;;;;;25.3;38.68555;102531;;;;-78
2022/05/07 15:42:26;;;;;;;7.1;3.5;;;;;;;;;;;;;-78
2022/05/07 15:45:24;;;;;;;;;;;;;;;25;39.01758;102525.5;;;;-74
2022/05/07 15:50:23;;;;;;;;;;;;;;;24.78;39.53027;102527.5;;;;-76
2022/05/07 15:55:23;;;;;;;;;;;;;;;24.6;39.72363;102529.1;;;;-76
2022/05/07 16:00:24;;;;;;;;;;;;;;;24.44;39.89355;102537.3;;;;-78
2022/05/07 16:05:24;;;;;;;;;;;;;;;24.28;40.2832;102534.4;;;;-76
2022/05/07 16:10:26;;;;;;;;;;;;;;;24.08;40.27734;102535.9;;;;-74
2022/05/07 16:12:30;;;;;;;3.6;2.2;;;;;;;;;;;;;-75
2022/05/07 16:15:23;;;;;;;;;;;;;;;23.96;40.43945;102540.8;;;;-76
2022/05/07 16:20:24;;;;;;;;;;;;;;;23.93;40.22949;102545.2;;;;-77
2022/05/07 16:25:23;;;;;;;;;;;;;;;24;40.50195;102542;;;;-76
2022/05/07 16:30:24;;;;;;;;;;;;;;;24.02;40.57129;102549;;;;-77
2022/05/07 16:35:24;;;;;;;;;;;;;;;24;40.84668;102549.1;;;;-76
2022/05/07 16:40:24;;;;;;;;;;;;;;;23.96;40.85547;102556.5;;;;-76
2022/05/07 16:42:33;;;;;;;2.9;1.6;;;;;;;;;;;;;-76
2022/05/07 16:45:23;;;;;;;;;;;;;;;23.83;41.14355;102555.8;;;;-75
2022/05/07 16:50:24;;;;;;;;;;;;;;;23.67;41.15137;102551.9;;;;-76
2022/05/07 16:55:25;;;;;;;;;;;;;;;22.14;43.82617;102553.5;;;;-79
2022/05/07 17:00:30;;;;;;;;;;;;;;;21.09;46.5166;102564.5;;;;-77
2022/05/07 17:05:27;;;;;;;;;;;;;;;20.6;48.10156;102565.4;;;;-76
2022/05/07 17:10:24;;;;;;;;;;;;;;;21.38;45.81543;102564.9;;;;-78
2022/05/07 17:12:39;;;;;;;3.7;1.7;;;;;;;;;;;;;-77
2022/05/07 17:15:23;;;;;;;;;;;;;;;21.87;44.41895;102562.1;;;;-77
2022/05/07 17:20:23;;;;;;;;;;;;;;;22;43.80078;102569.2;;;;-76
2022/05/07 17:25:23;;;;;;;;;;;;;;;21.98;43.61523;102564;;;;-79
2022/05/07 17:30:23;;;;;;;;;;;;;;;21.86;43.66113;102574.2;;;;-78
2022/05/07 17:35:23;;;;;;;;;;;;;;;21.71;43.63477;102578.3;;;;-78
2022/05/07 17:40:23;;;;;;;;;;;;;;;21.56;43.62012;102577.4;;;;-77
2022/05/07 17:42:40;;;;;;;2.8;1.5;;;;;;;;;;;;;-77
2022/05/07 17:45:25;;;;;;;;;;;;;;;21.38;43.74023;102586.1;;;;-77
2022/05/07 17:50:23;;;;;;;;;;;;;;;21.19;44.04297;102593.5;;;;-78
2022/05/07 17:55:24;;;;;;;;;;;;;;;20.99;44.08008;102592.3;;;;-77
2022/05/07 18:00:24;;;;;;;;;;;;;;;20.76;44.2627;102595.5;;;;-78
2022/05/07 18:05:23;;;;;;;;;;;;;;;20.55;44.5166;102593.6;;;;-76
2022/05/07 18:17:14;;;;;;;;;;;;;;;20.02;44.97852;102611.8;;;;-86
2022/05/07 18:22:34;;;;;;;;;;;;;;;19.75;45.11035;102622.9;;;;-86
2022/05/07 18:27:25;;;;;;;;;;;;;;;19.5;45.05078;102626.5;;;;-88
2022/05/07 18:32:28;;;;;;;;;;;;;;;19.26;44.78711;102631;;;;-88
2022/05/07 18:43:06;;;;;;;6.5;2.3;;;;;;;;;;;;;-85
2022/05/07 18:47:16;;;;;;;;;;;;;;;18.47;45.49316;102652;;;;-86
2022/05/07 18:52:21;;;;;;;;;;;;;;;18.2;45.7959;102652.4;;;;-88
2022/05/07 19:12:23;;;;;;;;;;;;;;;17.15;47.95605;102684;;;;-86
2022/05/07 19:13:02;;;;;;;6.5;3.1;;;;;;;;;;;;;-86
2022/05/07 19:22:31;;;;;;;;;;;;;;;16.74;48.71484;102702.9;;;;-88
2022/05/07 19:27:16;;;;;;;;;;;;;;;16.53;49.42871;102703.7;;;;-86
2022/05/07 19:32:20;;;;;;;;;;;;;;;16.39;49.54785;102716.2;;;;-87
2022/05/07 19:37:24;;;;;;;;;;;;;;;16.25;49.92871;102728.5;;;;-87
2022/05/07 19:42:11;;;;;;;;;;;;;;;16.11;50.30957;102737;;;;-87
2022/05/07 19:43:00;;;;;;;6.5;3.5;;;;;;;;;;;;;-86
2022/05/07 19:51:52;;;;;;;;;;;;;;;15.9;50.88379;102743.6;;;;-83
2022/05/07 19:56:56;;;;;;;;;;;;;;;15.83;51.04395;102748.2;;;;-83
2022/05/07 20:11:56;;;;;;;;;;;;;;;15.55;51.9043;102766.9;;;;-83
2022/05/07 20:12:59;;;;;;;7.3;4.1;;;;;;;;;;;;;-84
2022/05/07 20:16:59;;;;;;;;;;;;;;;15.46;52.17676;102773;;;;-84
2022/05/07 20:27:04;;;;;;;;;;;;;;;;;;;;;
2022/05/07 20:32:10;;;;;;;;;;;;;;;15.21;53.20703;102795.9;;;;-83
2022/05/07 20:37:23;;;;;;;;;;;;;;;15.16;53.15527;102799.7;;;;-84
2022/05/07 20:41:50;;;;;;;;;;;;;;;15.06;53.4248;102798.9;;;;-83
2022/05/07 20:46:25;;;;;;;7.7;3.6;;;;;;;;;;;;;-84
2022/05/07 20:46:49;;;;;;;;;;;;;;;14.99;53.6875;102802;;;;-82
2022/05/07 20:52:00;;;;;;;;;;;;;;;14.92;53.71191;102808.3;;;;-84
2022/05/07 20:57:05;;;;;;;;;;;;;;;14.88;53.62793;102814.6;;;;-84
2022/05/07 21:02:04;;;;;;;;;;;;;;;14.81;53.77734;102810.1;;;;-84
2022/05/07 21:07:09;;;;;;;;;;;;;;;;;;;;;
2022/05/07 21:11:55;;;;;;;;;;;;;;;14.69;54.15723;102821;;;;-85
2022/05/07 21:13:10;;;;;;;6.1;3.4;;;;;;;;;;;;;-83
2022/05/07 21:17:03;;;;;;;;;;;;;;;14.64;54.12793;102828.2;;;;-85
2022/05/07 21:21:52;;;;;;;;;;;;;;;14.57;54.11914;102826.5;;;;-83
2022/05/07 21:26:49;;;;;;;;;;;;;;;14.43;54.12402;102808.4;;;;-85
2022/05/07 21:31:49;;;;;;;;;;;;;;;14.45;54.59961;102821.3;;;;-84
2022/05/07 21:36:55;;;;;;;;;;;;;;;14.39;54.62695;102826.9;;;;-84
2022/05/07 21:41:54;;;;;;;;;;;;;;;14.35;54.90234;102820.4;;;;-84
2022/05/07 21:46:52;;;;;;;;;;;;;;;14.31;54.52539;102822.5;;;;-85
2022/05/07 21:56:53;;;;;;;;;;;;;;;14.19;54.66895;102826.5;;;;-85
2022/05/07 22:01:58;;;;;;;;;;;;;;;14.11;54.83887;102826.6;;;;-87
2022/05/07 22:07:00;;;;;;;;;;;;;;;14.05;54.8418;102835.2;;;;-82
2022/05/07 22:11:59;;;;;;;;;;;;;;;13.96;55.1123;102839.7;;;;-84
2022/05/07 22:13:01;;;;;;;10.1;3.1;;;;;;;;;;;;;-81
2022/05/07 22:16:47;;;;;;;;;;;;;;;13.87;55.22363;102841.3;;;;-82
2022/05/07 22:21:53;;;;;;;;;;;;;;;13.76;55.45703;102855.1;;;;-84
2022/05/07 22:29:31;;;;;;;;;;;;;;;13.64;55.64453;102861.9;;;;-84
2022/05/07 22:34:30;;;;;;;;;;;;;;;13.56;55.73535;102867.3;;;;-84
2022/05/07 22:39:42;;;;;;;;;;;;;;;13.46;55.71191;102871.5;;;;-81
2022/05/07 22:43:02;;;;;;;8.8;2.8;;;;;;;;;;;;;-82
2022/05/07 22:49:37;;;;;;;;;;;;;;;13.25;55.9082;102874.5;;;;-83
2022/05/07 22:54:29;;;;;;;;;;;;;;;13.09;55.85547;102872.5;;;;-83
2022/05/07 22:59:33;;;;;;;;;;;;;;;12.96;56.01855;102877.8;;;;-84
2022/05/07 23:04:35;;;;;;;;;;;;;;;12.85;55.93555;102887.6;;;;-83
2022/05/07 23:09:27;;;;;;;;;;;;;;;12.72;56.17773;102890.6;;;;-85
2022/05/07 23:14:29;;;;;;;;;;;;;;;12.63;56.06543;102888;;;;-83
2022/05/07 23:19:32;;;;;;;;;;;;;;;12.5;56.32813;102886.6;;;;-83
2022/05/07 23:24:27;;;;;;;;;;;;;;;12.39;56.34766;102885.5;;;;-83
2022/05/07 23:29:42;;;;;;;;;;;;;;;;;;;;;
2022/05/07 23:34:48;;;;;;;;;;;;;;;12.17;56.64453;102891;;;;-83
2022/05/07 23:39:47;;;;;;;;;;;;;;;12.1;56.78027;102889.7;;;;-82
2022/05/07 23:43:08;;;;;;;9.3;2.8;;;;;;;;;;;;;-83
2022/05/07 23:44:34;;;;;;;;;;;;;;;12;57.05762;102898.6;;;;-83
2022/05/07 23:49:33;;;;;;;;;;;;;;;11.92;56.84668;102901.5;;;;-83
2022/05/07 23:54:27;;;;;;;;;;;;;;;11.82;57.02441;102907.3;;;;-84
2022/05/07 23:59:32;;;;;;;;;;;;;;;11.72;57.10059;102911.6;;;;-82
